Worthington, MN

8:21 AM CDT on June 29, 2017 (GMT -0500)
Worthington Municipal

Weather History for KOTG - January, 2014

Change the Weather History Date:

Monday, January 27, 2014

  Actual Average Record
Temperature  
Mean Temperature -6 °F -  
Max Temperature -2 °F 22 °F 51 °F (2002)
Min Temperature -11 °F 9 °F -19 °F (1988)
Degree Days  
Heating Degree Days 72    
Moisture  
Dew Point -17 °F    
Average Humidity 65    
Maximum Humidity 77    
Minimum Humidity 55    
Precipitation  
Precipitation 0.00 in - - ()
Sea Level Pressure  
Sea Level Pressure 30.33 in    
Wind  
Wind Speed 16 mph (WNW)    
Max Wind Speed 26 mph    
Max Gust Speed 33 mph    
Visibility 9 miles    
Events      
Averages and records for this station are not official NWS values.
T = Trace of Precipitation, MM = Missing Value Source: NWS Daily Summary

Daily Weather History Graph

Daily Weather History Graph

Search for Another Location

Airport or City:

Trip Planner

Search our weather history database for the weather conditions in past years. The results will help you decide how hot, cold, wet, or windy it might be!

Date:

Astronomy

Jan. 27, 2014 Rise Set
Actual Time 7:43 AM CST 5:26 PM CST
Civil Twilight 7:13 AM CST 5:57 PM CST
Nautical Twilight 6:38 AM CST 6:32 PM CST
Astronomical Twilight 6:04 AM CST 7:06 PM CST
Moon 4:27 AM CST (1/27) 2:12 PM CST (1/27)
Length of Visible Light 10h 44m
Length of Day
9h 42m
Waning Crescent, 14% of the Moon is Illuminated
Jan 27
Waning Crescent
Jan 30
New
Feb 6
First Quarter
Feb 14
Full
Feb 22
Last Quarter

Hourly Weather History & Observations

Time (CST) Temp. Windchill Dew Point Humidity Pressure Visibility Wind Dir Wind Speed Gust Speed Precip Events Conditions
12:15 AM -4.0 °F -24.5 °F -11.2 °F 71% 30.19 in 1.5 mi WNW 15.0 mph - N/A   Clear
12:35 AM -4.0 °F -29.6 °F -11.2 °F 71% 30.19 in 5.0 mi NW 25.3 mph 29.9 mph N/A   Clear
12:55 AM -2.2 °F -27.1 °F -9.4 °F 71% 30.20 in 3.0 mi NW 25.3 mph 32.2 mph N/A   Clear
1:15 AM -4.0 °F -30.0 °F -16.6 °F 55% 30.20 in 7.0 mi NW 26.5 mph 33.4 mph N/A   Clear
1:35 AM -5.8 °F -29.4 °F -14.8 °F 65% 30.20 in 9.0 mi NNW 19.6 mph - N/A   Clear
1:55 AM -7.6 °F -29.8 °F -16.6 °F 65% 30.21 in 7.0 mi NNW 16.1 mph - N/A   Clear
2:15 AM -7.6 °F -28.3 °F -14.8 °F 71% 30.22 in 3.0 mi NW 13.8 mph 19.6 mph N/A   Clear
2:35 AM -5.8 °F -29.4 °F -14.8 °F 65% 30.22 in 3.0 mi NW 19.6 mph 23.0 mph N/A   Clear
2:55 AM -7.6 °F -32.3 °F -18.4 °F 59% 30.22 in 10.0 mi NW 20.7 mph - N/A   Clear
3:15 AM -7.6 °F -32.3 °F -16.6 °F 65% 30.23 in 10.0 mi NW 20.7 mph - N/A   Clear
3:35 AM -7.6 °F -30.5 °F -18.4 °F 59% 30.23 in 10.0 mi NW 17.3 mph - N/A   Clear
3:55 AM -9.4 °F -31.4 °F -16.6 °F 71% 30.24 in 10.0 mi NW 15.0 mph - N/A   Clear
4:15 AM -9.4 °F -32.8 °F -18.4 °F 65% 30.25 in 10.0 mi NW 17.3 mph 21.9 mph N/A   Clear
4:35 AM -9.4 °F -34.7 °F -18.4 °F 65% 30.25 in 10.0 mi NW 20.7 mph 27.6 mph N/A   Clear
4:55 AM -9.4 °F -32.8 °F -18.4 °F 65% 30.26 in 10.0 mi NW 17.3 mph 24.2 mph N/A   Clear
5:15 AM -9.4 °F -32.1 °F -20.2 °F 59% 30.27 in 10.0 mi NW 16.1 mph 21.9 mph N/A   Clear
5:35 AM -9.4 °F -32.1 °F -20.2 °F 59% 30.28 in 10.0 mi NW 16.1 mph - N/A   Clear
5:55 AM -9.4 °F -32.1 °F -20.2 °F 59% 30.28 in 10.0 mi NW 16.1 mph - N/A   Clear
6:15 AM -11.2 °F -32.9 °F -20.2 °F 64% 30.29 in 10.0 mi WNW 13.8 mph - N/A   Clear
6:35 AM -11.2 °F -33.7 °F -18.4 °F 70% 30.30 in 10.0 mi WNW 15.0 mph - N/A   Clear
6:55 AM -11.2 °F -34.4 °F -20.2 °F 64% 30.30 in 10.0 mi NW 16.1 mph - N/A   Clear
7:15 AM -11.2 °F -33.7 °F -20.2 °F 64% 30.31 in 10.0 mi NW 15.0 mph - N/A   Clear
7:35 AM -11.2 °F -33.7 °F -20.2 °F 64% 30.32 in 10.0 mi NW 15.0 mph - N/A   Clear
7:55 AM -11.2 °F -32.1 °F -20.2 °F 64% 30.32 in 10.0 mi NW 12.7 mph - N/A   Clear
8:15 AM -11.2 °F -36.4 °F -20.2 °F 64% 30.33 in 10.0 mi NW 19.6 mph 23.0 mph N/A   Clear
8:35 AM -11.2 °F -32.9 °F -20.2 °F 64% 30.34 in 10.0 mi NW 13.8 mph - N/A   Clear
8:55 AM -11.2 °F -35.8 °F -20.2 °F 64% 30.35 in 10.0 mi NW 18.4 mph - N/A   Clear
9:15 AM -11.2 °F -33.7 °F -20.2 °F 64% 30.36 in 10.0 mi NW 15.0 mph - N/A   Clear
9:35 AM -9.4 °F -32.8 °F -20.2 °F 59% 30.37 in 10.0 mi NW 17.3 mph 20.7 mph N/A   Clear
9:55 AM -9.4 °F -32.8 °F -20.2 °F 59% 30.38 in 10.0 mi NW 17.3 mph - N/A   Clear
10:15 AM -9.4 °F -32.1 °F -20.2 °F 59% 30.39 in 10.0 mi NW 16.1 mph - N/A   Clear
10:35 AM -9.4 °F -32.1 °F -18.4 °F 65% 30.39 in 10.0 mi NW 16.1 mph - N/A   Clear
10:55 AM -9.4 °F -32.8 °F -18.4 °F 65% 30.40 in 10.0 mi NW 17.3 mph - N/A   Clear
11:15 AM -9.4 °F -31.4 °F -18.4 °F 65% 30.40 in 10.0 mi NW 15.0 mph - N/A   Clear
11:35 AM -7.6 °F -30.5 °F -18.4 °F 59% 30.40 in 10.0 mi NW 17.3 mph - N/A   Clear
11:55 AM -7.6 °F -30.5 °F -16.6 °F 65% 30.40 in 10.0 mi NW 17.3 mph - N/A   Clear
12:15 PM -7.6 °F -27.5 °F -18.4 °F 59% 30.39 in 10.0 mi WNW 12.7 mph - N/A   Clear
12:35 PM -7.6 °F -28.3 °F -16.6 °F 65% 30.39 in 10.0 mi WNW 13.8 mph 18.4 mph N/A   Clear
12:55 PM -7.6 °F -27.5 °F -16.6 °F 65% 30.39 in 10.0 mi WNW 12.7 mph 18.4 mph N/A   Clear
1:15 PM -7.6 °F -28.3 °F -16.6 °F 65% 30.38 in 10.0 mi WNW 13.8 mph - N/A   Clear
1:35 PM -5.8 °F -26.8 °F -16.6 °F 60% 30.38 in 10.0 mi WNW 15.0 mph - N/A   Clear
1:55 PM -7.6 °F -29.1 °F -16.6 °F 65% 30.37 in 10.0 mi WNW 15.0 mph - N/A   Clear
2:15 PM -5.8 °F -26.8 °F -16.6 °F 60% 30.37 in 10.0 mi WNW 15.0 mph - N/A   Clear
2:35 PM -5.8 °F -26.0 °F -16.6 °F 60% 30.37 in 10.0 mi WNW 13.8 mph - N/A   Clear
2:55 PM -5.8 °F -26.8 °F -14.8 °F 65% 30.37 in 10.0 mi WNW 15.0 mph - N/A   Clear
3:15 PM -5.8 °F -26.0 °F -16.6 °F 60% 30.37 in 10.0 mi NW 13.8 mph - N/A   Clear
3:35 PM -5.8 °F -26.8 °F -14.8 °F 65% 30.37 in 10.0 mi WNW 15.0 mph - N/A   Clear
3:55 PM -5.8 °F -26.0 °F -14.8 °F 65% 30.37 in 10.0 mi WNW 13.8 mph - N/A   Clear
4:15 PM -5.8 °F -24.4 °F -14.8 °F 65% 30.36 in 10.0 mi WNW 11.5 mph - N/A   Clear
4:35 PM -5.8 °F -25.2 °F -14.8 °F 65% 30.37 in 10.0 mi WNW 12.7 mph - N/A   Clear
4:55 PM -5.8 °F -24.4 °F -14.8 °F 65% 30.37 in 10.0 mi WNW 11.5 mph - N/A   Clear
5:15 PM -5.8 °F -24.4 °F -14.8 °F 65% 30.37 in 10.0 mi WNW 11.5 mph - N/A   Clear
5:35 PM -5.8 °F -22.4 °F -14.8 °F 65% 30.37 in 10.0 mi WNW 9.2 mph - N/A   Clear
5:55 PM -5.8 °F -21.2 °F -14.8 °F 65% 30.38 in 10.0 mi WNW 8.1 mph - N/A   Clear
6:15 PM -7.6 °F -20.6 °F -14.8 °F 71% 30.37 in 10.0 mi WNW 5.8 mph - N/A   Clear
6:35 PM -7.6 °F -23.4 °F -14.8 °F 71% 30.38 in 10.0 mi WNW 8.1 mph - N/A   Clear
6:55 PM -7.6 °F -20.6 °F -14.8 °F 71% 30.38 in 10.0 mi West 5.8 mph - N/A   Clear
7:15 PM -7.6 °F -22.1 °F -14.8 °F 71% 30.38 in 10.0 mi WNW 6.9 mph - N/A   Clear
7:35 PM -7.6 °F -22.1 °F -16.6 °F 65% 30.38 in 10.0 mi West 6.9 mph - N/A   Clear
7:55 PM -7.6 °F -18.8 °F -14.8 °F 71% 30.38 in 10.0 mi West 4.6 mph - N/A   Clear
8:15 PM -7.6 °F -18.8 °F -16.6 °F 65% 30.37 in 10.0 mi West 4.6 mph - N/A   Clear
8:35 PM -9.4 °F -24.3 °F -16.6 °F 71% 30.37 in 10.0 mi WSW 6.9 mph - N/A   Clear
8:55 PM -9.4 °F -25.6 °F -16.6 °F 71% 30.37 in 10.0 mi West 8.1 mph - N/A   Clear
9:15 PM -9.4 °F -24.3 °F -16.6 °F 71% 30.37 in 10.0 mi WSW 6.9 mph - N/A   Clear
9:35 PM -9.4 °F -22.7 °F -16.6 °F 71% 30.37 in 10.0 mi WSW 5.8 mph - N/A   Clear
9:55 PM -7.6 °F -22.1 °F -14.8 °F 71% 30.36 in 10.0 mi WSW 6.9 mph - N/A   Clear
10:15 PM -9.4 °F -25.6 °F -16.6 °F 71% 30.36 in 10.0 mi West 8.1 mph - N/A   Clear
10:35 PM -9.4 °F -25.6 °F -16.6 °F 71% 30.36 in 10.0 mi West 8.1 mph - N/A   Clear
10:55 PM -9.4 °F -22.7 °F -18.4 °F 65% 30.35 in 10.0 mi West 5.8 mph - N/A   Clear
11:15 PM -9.4 °F -22.7 °F -14.8 °F 77% 30.35 in 10.0 mi WNW 5.8 mph - N/A   Clear
11:35 PM -9.4 °F -26.8 °F -16.6 °F 71% 30.35 in 10.0 mi West 9.2 mph - N/A   Clear
11:55 PM -7.6 °F -22.1 °F -16.6 °F 65% 30.34 in 10.0 mi West 6.9 mph - N/A   Clear